sensor_id;sensor_type;location;lat;lon;timestamp;temperature;humidity
14585;DHT22;7379;51.506;11.876;2023-05-19T00:00:03;14.40;52.20
14585;DHT22;7379;51.506;11.876;2023-05-19T00:02:31;14.40;52.30
14585;DHT22;7379;51.506;11.876;2023-05-19T00:04:59;14.40;52.30
14585;DHT22;7379;51.506;11.876;2023-05-19T00:07:30;14.40;52.30
14585;DHT22;7379;51.506;11.876;2023-05-19T00:09:57;14.40;52.40
14585;DHT22;7379;51.506;11.876;2023-05-19T00:12:24;14.40;52.40
14585;DHT22;7379;51.506;11.876;2023-05-19T00:14:51;14.40;52.50
14585;DHT22;7379;51.506;11.876;2023-05-19T00:17:19;14.40;52.50
14585;DHT22;7379;51.506;11.876;2023-05-19T00:19:45;14.40;52.50
14585;DHT22;7379;51.506;11.876;2023-05-19T00:22:13;14.40;52.50
14585;DHT22;7379;51.506;11.876;2023-05-19T00:24:41;14.40;52.60
14585;DHT22;7379;51.506;11.876;2023-05-19T00:27:08;14.40;52.60
14585;DHT22;7379;51.506;11.876;2023-05-19T00:29:35;14.30;52.50
14585;DHT22;7379;51.506;11.876;2023-05-19T00:32:02;14.30;52.60
14585;DHT22;7379;51.506;11.876;2023-05-19T00:34:28;14.30;52.60
14585;DHT22;7379;51.506;11.876;2023-05-19T00:36:55;14.30;52.60
14585;DHT22;7379;51.506;11.876;2023-05-19T00:39:22;14.30;52.60
14585;DHT22;7379;51.506;11.876;2023-05-19T00:41:50;14.30;52.60
14585;DHT22;7379;51.506;11.876;2023-05-19T00:44:17;14.30;52.70
14585;DHT22;7379;51.506;11.876;2023-05-19T00:46:44;14.30;52.70
14585;DHT22;7379;51.506;11.876;2023-05-19T00:49:10;14.30;52.80
14585;DHT22;7379;51.506;11.876;2023-05-19T00:51:37;14.30;52.80
14585;DHT22;7379;51.506;11.876;2023-05-19T00:54:04;14.20;52.80
14585;DHT22;7379;51.506;11.876;2023-05-19T00:56:31;14.20;52.80
14585;DHT22;7379;51.506;11.876;2023-05-19T00:58:59;14.20;52.80
14585;DHT22;7379;51.506;11.876;2023-05-19T01:01:26;14.20;52.90
14585;DHT22;7379;51.506;11.876;2023-05-19T01:03:53;14.20;52.90
14585;DHT22;7379;51.506;11.876;2023-05-19T01:06:23;14.20;52.90
14585;DHT22;7379;51.506;11.876;2023-05-19T01:08:50;14.20;53.00
14585;DHT22;7379;51.506;11.876;2023-05-19T01:11:17;14.20;53.00
14585;DHT22;7379;51.506;11.876;2023-05-19T01:13:44;14.20;53.00
14585;DHT22;7379;51.506;11.876;2023-05-19T01:16:19;14.20;53.00
14585;DHT22;7379;51.506;11.876;2023-05-19T01:18:51;14.20;53.10
14585;DHT22;7379;51.506;11.876;2023-05-19T01:24:56;14.10;53.00
14585;DHT22;7379;51.506;11.876;2023-05-19T01:27:52;14.10;53.10
14585;DHT22;7379;51.506;11.876;2023-05-19T01:30:28;14.10;53.10
14585;DHT22;7379;51.506;11.876;2023-05-19T01:32:58;14.10;53.10
14585;DHT22;7379;51.506;11.876;2023-05-19T01:35:26;14.10;53.20
14585;DHT22;7379;51.506;11.876;2023-05-19T01:37:54;14.10;53.20
14585;DHT22;7379;51.506;11.876;2023-05-19T01:40:22;14.10;53.20
14585;DHT22;7379;51.506;11.876;2023-05-19T01:42:52;14.10;53.20
14585;DHT22;7379;51.506;11.876;2023-05-19T01:45:20;14.00;53.10
14585;DHT22;7379;51.506;11.876;2023-05-19T01:47:52;14.10;53.20
14585;DHT22;7379;51.506;11.876;2023-05-19T01:50:19;14.00;53.10
14585;DHT22;7379;51.506;11.876;2023-05-19T01:52:46;14.00;53.10
14585;DHT22;7379;51.506;11.876;2023-05-19T01:55:12;14.00;53.80
14585;DHT22;7379;51.506;11.876;2023-05-19T02:00:30;14.00;53.10
14585;DHT22;7379;51.506;11.876;2023-05-19T02:03:10;14.00;53.20
14585;DHT22;7379;51.506;11.876;2023-05-19T02:05:44;14.00;53.20
14585;DHT22;7379;51.506;11.876;2023-05-19T02:08:21;14.00;53.10
14585;DHT22;7379;51.506;11.876;2023-05-19T02:10:52;14.00;53.20
14585;DHT22;7379;51.506;11.876;2023-05-19T02:13:23;14.00;53.20
14585;DHT22;7379;51.506;11.876;2023-05-19T02:15:55;13.90;53.80
14585;DHT22;7379;51.506;11.876;2023-05-19T02:18:26;14.00;53.30
14585;DHT22;7379;51.506;11.876;2023-05-19T02:20:54;13.90;53.20
14585;DHT22;7379;51.506;11.876;2023-05-19T02:23:21;13.90;53.20
14585;DHT22;7379;51.506;11.876;2023-05-19T02:25:47;13.90;53.20
14585;DHT22;7379;51.506;11.876;2023-05-19T02:28:14;13.90;53.30
14585;DHT22;7379;51.506;11.876;2023-05-19T02:30:41;13.90;53.30
14585;DHT22;7379;51.506;11.876;2023-05-19T02:33:07;13.90;53.30
14585;DHT22;7379;51.506;11.876;2023-05-19T02:35:37;13.90;53.40
14585;DHT22;7379;51.506;11.876;2023-05-19T02:38:03;13.90;53.40
14585;DHT22;7379;51.506;11.876;2023-05-19T02:40:31;13.80;53.30
14585;DHT22;7379;51.506;11.876;2023-05-19T02:42:57;13.80;53.30
14585;DHT22;7379;51.506;11.876;2023-05-19T02:45:24;13.80;53.40
14585;DHT22;7379;51.506;11.876;2023-05-19T02:47:53;13.80;53.40
14585;DHT22;7379;51.506;11.876;2023-05-19T02:50:19;13.80;53.40
14585;DHT22;7379;51.506;11.876;2023-05-19T02:52:48;13.80;53.50
14585;DHT22;7379;51.506;11.876;2023-05-19T02:55:15;13.80;53.50
14585;DHT22;7379;51.506;11.876;2023-05-19T02:57:42;13.80;53.60
14585;DHT22;7379;51.506;11.876;2023-05-19T03:00:09;13.80;53.60
14585;DHT22;7379;51.506;11.876;2023-05-19T03:02:36;13.80;53.60
14585;DHT22;7379;51.506;11.876;2023-05-19T03:05:04;13.80;53.60
14585;DHT22;7379;51.506;11.876;2023-05-19T03:07:32;13.80;53.60
14585;DHT22;7379;51.506;11.876;2023-05-19T03:10:00;13.70;53.60
14585;DHT22;7379;51.506;11.876;2023-05-19T03:12:28;13.70;53.60
14585;DHT22;7379;51.506;11.876;2023-05-19T03:14:56;13.70;53.70
14585;DHT22;7379;51.506;11.876;2023-05-19T03:17:22;13.70;53.70
14585;DHT22;7379;51.506;11.876;2023-05-19T03:19:49;13.70;53.70
14585;DHT22;7379;51.506;11.876;2023-05-19T03:22:16;13.70;53.70
14585;DHT22;7379;51.506;11.876;2023-05-19T03:24:45;13.70;53.80
14585;DHT22;7379;51.506;11.876;2023-05-19T03:27:15;13.70;53.80
14585;DHT22;7379;51.506;11.876;2023-05-19T03:29:42;13.70;53.90
14585;DHT22;7379;51.506;11.876;2023-05-19T03:32:08;13.70;53.90
14585;DHT22;7379;51.506;11.876;2023-05-19T03:34:35;13.60;53.90
14585;DHT22;7379;51.506;11.876;2023-05-19T03:37:02;13.60;53.80
14585;DHT22;7379;51.506;11.876;2023-05-19T03:39:29;13.60;53.90
14585;DHT22;7379;51.506;11.876;2023-05-19T03:41:55;13.60;53.90
14585;DHT22;7379;51.506;11.876;2023-05-19T03:44:23;13.60;53.90
14585;DHT22;7379;51.506;11.876;2023-05-19T03:46:50;13.60;54.00
14585;DHT22;7379;51.506;11.876;2023-05-19T03:49:17;13.60;54.00
14585;DHT22;7379;51.506;11.876;2023-05-19T03:51:43;13.50;53.90
14585;DHT22;7379;51.506;11.876;2023-05-19T03:54:10;13.60;54.00
14585;DHT22;7379;51.506;11.876;2023-05-19T03:56:38;13.60;54.00
14585;DHT22;7379;51.506;11.876;2023-05-19T03:59:05;13.60;54.10
14585;DHT22;7379;51.506;11.876;2023-05-19T04:01:33;13.50;54.00
14585;DHT22;7379;51.506;11.876;2023-05-19T04:04:01;13.50;54.00
14585;DHT22;7379;51.506;11.876;2023-05-19T04:06:27;13.50;54.00
14585;DHT22;7379;51.506;11.876;2023-05-19T04:08:55;13.50;54.10
14585;DHT22;7379;51.506;11.876;2023-05-19T04:11:22;13.50;54.10
14585;DHT22;7379;51.506;11.876;2023-05-19T04:13:48;13.50;54.10
14585;DHT22;7379;51.506;11.876;2023-05-19T04:16:15;13.50;54.10
14585;DHT22;7379;51.506;11.876;2023-05-19T04:18:43;13.50;54.10
14585;DHT22;7379;51.506;11.876;2023-05-19T04:21:10;13.50;54.20
14585;DHT22;7379;51.506;11.876;2023-05-19T04:23:37;13.50;54.20
14585;DHT22;7379;51.506;11.876;2023-05-19T04:26:03;13.50;54.20
14585;DHT22;7379;51.506;11.876;2023-05-19T04:28:31;13.50;54.90
14585;DHT22;7379;51.506;11.876;2023-05-19T04:31:00;13.50;54.30
14585;DHT22;7379;51.506;11.876;2023-05-19T04:33:27;13.40;54.20
14585;DHT22;7379;51.506;11.876;2023-05-19T04:35:55;13.50;55.00
14585;DHT22;7379;51.506;11.876;2023-05-19T04:38:22;13.50;54.40
14585;DHT22;7379;51.506;11.876;2023-05-19T04:40:49;13.50;54.40
14585;DHT22;7379;51.506;11.876;2023-05-19T04:43:16;13.50;54.40
14585;DHT22;7379;51.506;11.876;2023-05-19T04:45:43;13.50;54.40
14585;DHT22;7379;51.506;11.876;2023-05-19T04:48:11;13.50;54.50
14585;DHT22;7379;51.506;11.876;2023-05-19T04:50:38;13.50;54.50
14585;DHT22;7379;51.506;11.876;2023-05-19T04:53:07;13.40;54.50
14585;DHT22;7379;51.506;11.876;2023-05-19T04:55:36;13.40;54.50
14585;DHT22;7379;51.506;11.876;2023-05-19T04:58:03;13.40;54.60
14585;DHT22;7379;51.506;11.876;2023-05-19T05:00:29;13.40;54.70
14585;DHT22;7379;51.506;11.876;2023-05-19T05:02:56;13.40;54.60
14585;DHT22;7379;51.506;11.876;2023-05-19T05:05:23;13.40;54.70
14585;DHT22;7379;51.506;11.876;2023-05-19T05:07:50;13.40;54.70
14585;DHT22;7379;51.506;11.876;2023-05-19T05:10:19;13.40;54.80
14585;DHT22;7379;51.506;11.876;2023-05-19T05:12:47;13.40;54.90
14585;DHT22;7379;51.506;11.876;2023-05-19T05:15:14;13.40;54.80
14585;DHT22;7379;51.506;11.876;2023-05-19T05:17:41;13.40;54.80
14585;DHT22;7379;51.506;11.876;2023-05-19T05:20:10;13.40;54.90
14585;DHT22;7379;51.506;11.876;2023-05-19T05:22:37;13.40;54.90
14585;DHT22;7379;51.506;11.876;2023-05-19T05:25:05;13.40;54.90
14585;DHT22;7379;51.506;11.876;2023-05-19T05:27:33;13.40;54.90
14585;DHT22;7379;51.506;11.876;2023-05-19T05:30:00;13.40;55.00
14585;DHT22;7379;51.506;11.876;2023-05-19T05:32:27;13.40;54.90
14585;DHT22;7379;51.506;11.876;2023-05-19T05:34:54;13.40;55.00
14585;DHT22;7379;51.506;11.876;2023-05-19T05:37:21;13.40;55.00
14585;DHT22;7379;51.506;11.876;2023-05-19T05:39:47;13.40;55.00
14585;DHT22;7379;51.506;11.876;2023-05-19T05:42:14;13.30;55.00
14585;DHT22;7379;51.506;11.876;2023-05-19T05:44:42;13.30;55.00
14585;DHT22;7379;51.506;11.876;2023-05-19T05:47:10;13.40;55.20
14585;DHT22;7379;51.506;11.876;2023-05-19T05:49:37;13.30;55.10
14585;DHT22;7379;51.506;11.876;2023-05-19T05:52:07;13.40;55.20
14585;DHT22;7379;51.506;11.876;2023-05-19T05:54:36;13.30;55.10
14585;DHT22;7379;51.506;11.876;2023-05-19T05:57:04;13.40;55.20
14585;DHT22;7379;51.506;11.876;2023-05-19T05:59:31;13.40;55.30
14585;DHT22;7379;51.506;11.876;2023-05-19T06:02:00;13.40;55.30
14585;DHT22;7379;51.506;11.876;2023-05-19T06:04:27;13.40;55.30
14585;DHT22;7379;51.506;11.876;2023-05-19T06:06:54;13.40;55.30
14585;DHT22;7379;51.506;11.876;2023-05-19T06:09:25;13.40;55.30
14585;DHT22;7379;51.506;11.876;2023-05-19T06:11:52;13.40;55.40
14585;DHT22;7379;51.506;11.876;2023-05-19T06:14:18;13.40;55.40
14585;DHT22;7379;51.506;11.876;2023-05-19T06:16:45;13.40;55.40
14585;DHT22;7379;51.506;11.876;2023-05-19T06:19:13;13.40;55.40
14585;DHT22;7379;51.506;11.876;2023-05-19T06:21:40;13.40;55.50
14585;DHT22;7379;51.506;11.876;2023-05-19T06:24:07;13.40;55.60
14585;DHT22;7379;51.506;11.876;2023-05-19T06:26:34;13.40;55.70
14585;DHT22;7379;51.506;11.876;2023-05-19T06:29:01;13.40;55.70
14585;DHT22;7379;51.506;11.876;2023-05-19T06:31:28;13.40;56.10
14585;DHT22;7379;51.506;11.876;2023-05-19T06:33:55;13.40;55.80
14585;DHT22;7379;51.506;11.876;2023-05-19T06:36:23;13.50;55.90
14585;DHT22;7379;51.506;11.876;2023-05-19T06:38:50;13.40;55.80
14585;DHT22;7379;51.506;11.876;2023-05-19T06:41:17;13.40;55.80
14585;DHT22;7379;51.506;11.876;2023-05-19T06:43:43;13.50;55.90
14585;DHT22;7379;51.506;11.876;2023-05-19T06:46:10;13.50;56.00
14585;DHT22;7379;51.506;11.876;2023-05-19T06:48:37;13.50;56.00
14585;DHT22;7379;51.506;11.876;2023-05-19T06:51:04;13.50;56.10
14585;DHT22;7379;51.506;11.876;2023-05-19T06:53:32;13.50;56.10
14585;DHT22;7379;51.506;11.876;2023-05-19T06:55:59;13.50;56.20
14585;DHT22;7379;51.506;11.876;2023-05-19T06:58:26;13.50;56.30
14585;DHT22;7379;51.506;11.876;2023-05-19T07:00:52;13.60;56.30
14585;DHT22;7379;51.506;11.876;2023-05-19T07:03:19;13.50;56.20
14585;DHT22;7379;51.506;11.876;2023-05-19T07:05:46;13.60;57.00
14585;DHT22;7379;51.506;11.876;2023-05-19T07:08:13;13.50;56.40
14585;DHT22;7379;51.506;11.876;2023-05-19T07:10:41;13.50;56.50
14585;DHT22;7379;51.506;11.876;2023-05-19T07:13:07;13.60;56.70
14585;DHT22;7379;51.506;11.876;2023-05-19T07:15:34;13.60;56.70
14585;DHT22;7379;51.506;11.876;2023-05-19T07:18:01;13.60;56.60
14585;DHT22;7379;51.506;11.876;2023-05-19T07:20:27;13.60;57.20
14585;DHT22;7379;51.506;11.876;2023-05-19T07:22:54;13.60;56.80
14585;DHT22;7379;51.506;11.876;2023-05-19T07:25:21;13.70;56.80
14585;DHT22;7379;51.506;11.876;2023-05-19T07:27:49;13.70;56.90
14585;DHT22;7379;51.506;11.876;2023-05-19T07:30:16;13.80;56.90
14585;DHT22;7379;51.506;11.876;2023-05-19T07:32:42;13.80;56.80
14585;DHT22;7379;51.506;11.876;2023-05-19T07:35:09;13.80;56.80
14585;DHT22;7379;51.506;11.876;2023-05-19T07:37:36;13.80;56.80
14585;DHT22;7379;51.506;11.876;2023-05-19T07:40:03;13.80;56.90
14585;DHT22;7379;51.506;11.876;2023-05-19T07:42:30;13.90;57.20
14585;DHT22;7379;51.506;11.876;2023-05-19T07:44:59;13.90;56.80
14585;DHT22;7379;51.506;11.876;2023-05-19T07:47:28;13.90;57.10
14585;DHT22;7379;51.506;11.876;2023-05-19T07:49:55;13.90;57.20
14585;DHT22;7379;51.506;11.876;2023-05-19T07:52:21;14.00;57.20
14585;DHT22;7379;51.506;11.876;2023-05-19T07:54:48;14.00;57.40
14585;DHT22;7379;51.506;11.876;2023-05-19T07:57:15;14.00;57.00
14585;DHT22;7379;51.506;11.876;2023-05-19T07:59:43;14.00;57.60
14585;DHT22;7379;51.506;11.876;2023-05-19T08:02:11;14.10;57.00
14585;DHT22;7379;51.506;11.876;2023-05-19T08:04:38;14.20;57.10
14585;DHT22;7379;51.506;11.876;2023-05-19T08:07:05;14.30;57.00
14585;DHT22;7379;51.506;11.876;2023-05-19T08:09:31;14.30;56.80
14585;DHT22;7379;51.506;11.876;2023-05-19T08:11:58;14.30;56.60
14585;DHT22;7379;51.506;11.876;2023-05-19T08:14:25;14.40;56.60
14585;DHT22;7379;51.506;11.876;2023-05-19T08:16:52;14.40;56.50
14585;DHT22;7379;51.506;11.876;2023-05-19T08:19:20;14.40;56.30
14585;DHT22;7379;51.506;11.876;2023-05-19T08:21:47;14.40;56.40
14585;DHT22;7379;51.506;11.876;2023-05-19T08:24:14;14.40;56.50
14585;DHT22;7379;51.506;11.876;2023-05-19T08:26:42;14.40;56.50
14585;DHT22;7379;51.506;11.876;2023-05-19T08:29:09;14.50;57.20
14585;DHT22;7379;51.506;11.876;2023-05-19T08:31:36;14.50;56.60
14585;DHT22;7379;51.506;11.876;2023-05-19T08:34:03;14.50;56.50
14585;DHT22;7379;51.506;11.876;2023-05-19T08:36:31;14.50;56.70
14585;DHT22;7379;51.506;11.876;2023-05-19T08:38:58;14.50;56.80
14585;DHT22;7379;51.506;11.876;2023-05-19T08:41:25;14.50;56.70
14585;DHT22;7379;51.506;11.876;2023-05-19T08:43:52;14.50;57.00
14585;DHT22;7379;51.506;11.876;2023-05-19T08:46:20;14.60;57.40
14585;DHT22;7379;51.506;11.876;2023-05-19T08:48:54;14.60;57.80
14585;DHT22;7379;51.506;11.876;2023-05-19T08:51:32;14.60;57.60
14585;DHT22;7379;51.506;11.876;2023-05-19T08:54:10;14.60;57.20
14585;DHT22;7379;51.506;11.876;2023-05-19T08:56:38;14.60;57.20
14585;DHT22;7379;51.506;11.876;2023-05-19T08:59:05;14.70;57.80
14585;DHT22;7379;51.506;11.876;2023-05-19T09:01:33;14.70;57.50
14585;DHT22;7379;51.506;11.876;2023-05-19T09:04:00;14.70;57.50
14585;DHT22;7379;51.506;11.876;2023-05-19T09:06:26;14.80;57.30
14585;DHT22;7379;51.506;11.876;2023-05-19T09:08:58;14.90;58.40
14585;DHT22;7379;51.506;11.876;2023-05-19T09:11:24;14.90;57.10
14585;DHT22;7379;51.506;11.876;2023-05-19T09:13:51;14.80;56.20
14585;DHT22;7379;51.506;11.876;2023-05-19T09:16:18;14.90;56.40
14585;DHT22;7379;51.506;11.876;2023-05-19T09:18:52;14.90;56.20
14585;DHT22;7379;51.506;11.876;2023-05-19T09:21:25;15.00;56.00
14585;DHT22;7379;51.506;11.876;2023-05-19T09:23:52;15.00;55.70
14585;DHT22;7379;51.506;11.876;2023-05-19T09:26:21;15.00;55.80
14585;DHT22;7379;51.506;11.876;2023-05-19T09:28:48;15.00;55.60
14585;DHT22;7379;51.506;11.876;2023-05-19T09:31:14;15.00;55.30
14585;DHT22;7379;51.506;11.876;2023-05-19T09:33:42;15.10;55.30
14585;DHT22;7379;51.506;11.876;2023-05-19T09:36:08;15.10;55.00
14585;DHT22;7379;51.506;11.876;2023-05-19T09:38:36;15.10;55.40
14585;DHT22;7379;51.506;11.876;2023-05-19T09:41:04;15.10;55.20
14585;DHT22;7379;51.506;11.876;2023-05-19T09:43:33;15.10;55.30
14585;DHT22;7379;51.506;11.876;2023-05-19T09:46:03;15.10;54.80
14585;DHT22;7379;51.506;11.876;2023-05-19T09:48:30;15.20;54.60
14585;DHT22;7379;51.506;11.876;2023-05-19T09:50:59;15.20;54.90
14585;DHT22;7379;51.506;11.876;2023-05-19T09:53:28;15.20;55.10
14585;DHT22;7379;51.506;11.876;2023-05-19T09:55:56;15.20;54.90
14585;DHT22;7379;51.506;11.876;2023-05-19T09:58:23;15.20;54.60
14585;DHT22;7379;51.506;11.876;2023-05-19T10:00:52;15.30;54.50
14585;DHT22;7379;51.506;11.876;2023-05-19T10:03:20;15.30;53.90
14585;DHT22;7379;51.506;11.876;2023-05-19T10:05:48;15.30;53.60
14585;DHT22;7379;51.506;11.876;2023-05-19T10:08:16;15.30;53.50
14585;DHT22;7379;51.506;11.876;2023-05-19T10:10:44;15.30;53.30
14585;DHT22;7379;51.506;11.876;2023-05-19T10:13:11;15.30;53.30
14585;DHT22;7379;51.506;11.876;2023-05-19T10:15:39;15.30;53.50
14585;DHT22;7379;51.506;11.876;2023-05-19T10:18:08;15.20;53.20
14585;DHT22;7379;51.506;11.876;2023-05-19T10:20:35;15.20;53.10
14585;DHT22;7379;51.506;11.876;2023-05-19T10:23:02;15.20;52.90
14585;DHT22;7379;51.506;11.876;2023-05-19T10:25:29;15.30;52.90
14585;DHT22;7379;51.506;11.876;2023-05-19T10:28:00;15.30;52.90
14585;DHT22;7379;51.506;11.876;2023-05-19T10:30:32;15.30;53.10
14585;DHT22;7379;51.506;11.876;2023-05-19T10:33:00;15.30;53.10
14585;DHT22;7379;51.506;11.876;2023-05-19T10:36:04;15.30;53.10
14585;DHT22;7379;51.506;11.876;2023-05-19T10:38:40;15.40;52.70
14585;DHT22;7379;51.506;11.876;2023-05-19T10:41:11;15.40;52.60
14585;DHT22;7379;51.506;11.876;2023-05-19T10:43:48;15.40;52.20
14585;DHT22;7379;51.506;11.876;2023-05-19T10:46:22;15.40;52.00
14585;DHT22;7379;51.506;11.876;2023-05-19T10:48:50;15.50;51.60
14585;DHT22;7379;51.506;11.876;2023-05-19T10:51:19;15.50;51.30
14585;DHT22;7379;51.506;11.876;2023-05-19T10:53:45;15.50;51.20
14585;DHT22;7379;51.506;11.876;2023-05-19T10:56:27;15.50;51.30
14585;DHT22;7379;51.506;11.876;2023-05-19T10:58:58;15.60;51.70
14585;DHT22;7379;51.506;11.876;2023-05-19T11:01:30;15.60;51.40
14585;DHT22;7379;51.506;11.876;2023-05-19T11:04:04;15.60;51.10
14585;DHT22;7379;51.506;11.876;2023-05-19T11:06:33;15.70;50.90
14585;DHT22;7379;51.506;11.876;2023-05-19T11:09:11;15.70;50.70
14585;DHT22;7379;51.506;11.876;2023-05-19T11:11:46;15.70;50.50
14585;DHT22;7379;51.506;11.876;2023-05-19T11:14:15;15.70;50.50
14585;DHT22;7379;51.506;11.876;2023-05-19T11:16:45;15.70;50.50
14585;DHT22;7379;51.506;11.876;2023-05-19T11:19:17;15.80;50.50
14585;DHT22;7379;51.506;11.876;2023-05-19T11:21:49;15.80;50.40
14585;DHT22;7379;51.506;11.876;2023-05-19T11:24:36;15.80;50.20
14585;DHT22;7379;51.506;11.876;2023-05-19T11:27:17;15.90;50.20
14585;DHT22;7379;51.506;11.876;2023-05-19T11:29:44;15.90;49.90
14585;DHT22;7379;51.506;11.876;2023-05-19T11:32:12;15.90;49.70
14585;DHT22;7379;51.506;11.876;2023-05-19T11:34:39;15.90;49.40
14585;DHT22;7379;51.506;11.876;2023-05-19T11:37:08;15.90;49.10
14585;DHT22;7379;51.506;11.876;2023-05-19T11:39:35;16.00;49.10
14585;DHT22;7379;51.506;11.876;2023-05-19T11:42:02;16.00;49.20
14585;DHT22;7379;51.506;11.876;2023-05-19T11:44:28;16.00;48.80
14585;DHT22;7379;51.506;11.876;2023-05-19T11:46:56;16.00;48.80
14585;DHT22;7379;51.506;11.876;2023-05-19T11:49:23;16.10;48.70
14585;DHT22;7379;51.506;11.876;2023-05-19T11:51:50;16.10;48.90
14585;DHT22;7379;51.506;11.876;2023-05-19T11:54:18;16.10;48.90
14585;DHT22;7379;51.506;11.876;2023-05-19T11:56:44;16.20;48.80
14585;DHT22;7379;51.506;11.876;2023-05-19T11:59:11;16.20;48.30
14585;DHT22;7379;51.506;11.876;2023-05-19T12:01:38;16.20;48.10
14585;DHT22;7379;51.506;11.876;2023-05-19T12:04:07;16.30;48.40
14585;DHT22;7379;51.506;11.876;2023-05-19T12:06:34;16.40;48.40
14585;DHT22;7379;51.506;11.876;2023-05-19T12:09:03;16.40;48.60
14585;DHT22;7379;51.506;11.876;2023-05-19T12:11:32;16.40;48.30
14585;DHT22;7379;51.506;11.876;2023-05-19T12:14:00;16.50;47.90
14585;DHT22;7379;51.506;11.876;2023-05-19T12:16:33;16.50;48.00
14585;DHT22;7379;51.506;11.876;2023-05-19T12:19:00;16.60;47.60
14585;DHT22;7379;51.506;11.876;2023-05-19T12:21:27;16.60;47.70
14585;DHT22;7379;51.506;11.876;2023-05-19T12:23:54;16.60;47.70
14585;DHT22;7379;51.506;11.876;2023-05-19T12:26:21;16.60;48.00
14585;DHT22;7379;51.506;11.876;2023-05-19T12:28:50;16.50;48.00
14585;DHT22;7379;51.506;11.876;2023-05-19T12:31:17;16.60;48.20
14585;DHT22;7379;51.506;11.876;2023-05-19T12:33:44;16.60;48.20
14585;DHT22;7379;51.506;11.876;2023-05-19T12:36:16;16.60;48.40
14585;DHT22;7379;51.506;11.876;2023-05-19T12:38:43;16.70;48.90
14585;DHT22;7379;51.506;11.876;2023-05-19T12:41:10;16.80;48.30
14585;DHT22;7379;51.506;11.876;2023-05-19T12:43:37;16.90;47.80
14585;DHT22;7379;51.506;11.876;2023-05-19T12:46:12;17.00;47.30
14585;DHT22;7379;51.506;11.876;2023-05-19T12:48:41;17.00;46.50
14585;DHT22;7379;51.506;11.876;2023-05-19T12:51:08;17.10;46.30
14585;DHT22;7379;51.506;11.876;2023-05-19T12:53:36;17.10;46.30
14585;DHT22;7379;51.506;11.876;2023-05-19T12:56:10;17.10;46.30
14585;DHT22;7379;51.506;11.876;2023-05-19T12:58:38;17.10;46.50
14585;DHT22;7379;51.506;11.876;2023-05-19T13:01:05;17.00;46.60
14585;DHT22;7379;51.506;11.876;2023-05-19T13:03:39;17.00;46.80
14585;DHT22;7379;51.506;11.876;2023-05-19T13:06:07;16.90;47.00
14585;DHT22;7379;51.506;11.876;2023-05-19T13:08:35;16.90;47.40
14585;DHT22;7379;51.506;11.876;2023-05-19T13:11:02;16.90;47.50
14585;DHT22;7379;51.506;11.876;2023-05-19T13:13:29;16.90;47.50
14585;DHT22;7379;51.506;11.876;2023-05-19T13:15:55;17.00;47.70
14585;DHT22;7379;51.506;11.876;2023-05-19T13:18:22;17.10;47.50
14585;DHT22;7379;51.506;11.876;2023-05-19T13:20:52;17.30;47.20
14585;DHT22;7379;51.506;11.876;2023-05-19T13:23:19;17.40;47.10
14585;DHT22;7379;51.506;11.876;2023-05-19T13:25:46;17.50;46.90
14585;DHT22;7379;51.506;11.876;2023-05-19T13:28:12;17.60;46.70
14585;DHT22;7379;51.506;11.876;2023-05-19T13:30:40;17.70;46.80
14585;DHT22;7379;51.506;11.876;2023-05-19T13:33:06;17.80;46.70
14585;DHT22;7379;51.506;11.876;2023-05-19T13:35:33;17.80;46.30
14585;DHT22;7379;51.506;11.876;2023-05-19T13:38:03;17.80;46.60
14585;DHT22;7379;51.506;11.876;2023-05-19T13:40:30;17.90;46.10
14585;DHT22;7379;51.506;11.876;2023-05-19T13:42:59;17.90;46.00
14585;DHT22;7379;51.506;11.876;2023-05-19T13:45:26;17.90;46.30
14585;DHT22;7379;51.506;11.876;2023-05-19T13:47:53;17.90;46.10
14585;DHT22;7379;51.506;11.876;2023-05-19T13:50:19;17.90;46.00
14585;DHT22;7379;51.506;11.876;2023-05-19T13:52:46;17.90;46.30
14585;DHT22;7379;51.506;11.876;2023-05-19T13:55:21;17.90;45.70
14585;DHT22;7379;51.506;11.876;2023-05-19T13:57:48;17.80;45.80
14585;DHT22;7379;51.506;11.876;2023-05-19T14:00:16;17.80;45.40
14585;DHT22;7379;51.506;11.876;2023-05-19T14:02:43;17.80;45.30
14585;DHT22;7379;51.506;11.876;2023-05-19T14:05:10;17.70;45.90
14585;DHT22;7379;51.506;11.876;2023-05-19T14:07:36;17.70;45.60
14585;DHT22;7379;51.506;11.876;2023-05-19T14:10:04;17.70;46.10
14585;DHT22;7379;51.506;11.876;2023-05-19T14:12:33;17.80;45.90
14585;DHT22;7379;51.506;11.876;2023-05-19T14:15:00;18.00;45.90
14585;DHT22;7379;51.506;11.876;2023-05-19T14:17:27;18.20;45.60
14585;DHT22;7379;51.506;11.876;2023-05-19T14:19:53;18.30;45.60
14585;DHT22;7379;51.506;11.876;2023-05-19T14:22:20;18.30;45.20
14585;DHT22;7379;51.506;11.876;2023-05-19T14:24:47;18.30;45.60
14585;DHT22;7379;51.506;11.876;2023-05-19T14:27:13;18.30;45.70
14585;DHT22;7379;51.506;11.876;2023-05-19T14:29:42;18.30;45.80
14585;DHT22;7379;51.506;11.876;2023-05-19T14:32:09;18.50;45.50
14585;DHT22;7379;51.506;11.876;2023-05-19T14:34:35;18.60;45.30
14585;DHT22;7379;51.506;11.876;2023-05-19T14:37:02;18.60;45.10
14585;DHT22;7379;51.506;11.876;2023-05-19T14:39:29;18.60;45.10
14585;DHT22;7379;51.506;11.876;2023-05-19T14:41:56;18.80;45.20
14585;DHT22;7379;51.506;11.876;2023-05-19T14:44:24;19.00;45.30
14585;DHT22;7379;51.506;11.876;2023-05-19T14:46:52;18.90;44.90
14585;DHT22;7379;51.506;11.876;2023-05-19T14:49:18;18.90;45.00
14585;DHT22;7379;51.506;11.876;2023-05-19T14:51:45;18.80;44.90
14585;DHT22;7379;51.506;11.876;2023-05-19T14:54:12;18.70;45.00
14585;DHT22;7379;51.506;11.876;2023-05-19T14:56:38;18.60;45.90
14585;DHT22;7379;51.506;11.876;2023-05-19T14:59:05;18.50;45.20
14585;DHT22;7379;51.506;11.876;2023-05-19T15:01:32;18.40;45.40
14585;DHT22;7379;51.506;11.876;2023-05-19T15:04:00;18.40;45.40
14585;DHT22;7379;51.506;11.876;2023-05-19T15:06:26;18.40;45.40
14585;DHT22;7379;51.506;11.876;2023-05-19T15:08:53;18.50;45.70
14585;DHT22;7379;51.506;11.876;2023-05-19T15:11:20;18.60;45.30
14585;DHT22;7379;51.506;11.876;2023-05-19T15:13:47;18.70;45.40
14585;DHT22;7379;51.506;11.876;2023-05-19T15:16:14;18.70;45.20
14585;DHT22;7379;51.506;11.876;2023-05-19T15:18:40;18.70;45.20
14585;DHT22;7379;51.506;11.876;2023-05-19T15:21:08;18.70;45.00
14585;DHT22;7379;51.506;11.876;2023-05-19T15:23:35;18.60;45.00
14585;DHT22;7379;51.506;11.876;2023-05-19T15:26:02;18.60;45.60
14585;DHT22;7379;51.506;11.876;2023-05-19T15:28:29;18.60;45.20
14585;DHT22;7379;51.506;11.876;2023-05-19T15:30:56;18.60;45.40
14585;DHT22;7379;51.506;11.876;2023-05-19T15:33:23;18.70;45.00
14585;DHT22;7379;51.506;11.876;2023-05-19T15:35:49;18.80;45.00
14585;DHT22;7379;51.506;11.876;2023-05-19T15:38:18;18.80;44.90
14585;DHT22;7379;51.506;11.876;2023-05-19T15:40:45;18.80;44.70